sensor_id;sensor_type;location;lat;lon;timestamp;P1;durP1;ratioP1;P2;durP2;ratioP2
21539;SDS011;10931;52.164;5.518;2024-01-30T00:02:06;22.38;;;13.38;;
21539;SDS011;10931;52.164;5.518;2024-01-30T00:04:35;19.90;;;13.30;;
21539;SDS011;10931;52.164;5.518;2024-01-30T00:07:01;16.85;;;12.30;;
21539;SDS011;10931;52.164;5.518;2024-01-30T00:09:26;20.85;;;12.70;;
21539;SDS011;10931;52.164;5.518;2024-01-30T00:11:55;19.30;;;12.73;;
21539;SDS011;10931;52.164;5.518;2024-01-30T00:14:21;18.23;;;12.40;;
21539;SDS011;10931;52.164;5.518;2024-01-30T00:16:48;21.00;;;11.48;;
21539;SDS011;10931;52.164;5.518;2024-01-30T00:19:19;17.75;;;11.73;;
21539;SDS011;10931;52.164;5.518;2024-01-30T00:21:45;19.85;;;12.23;;
21539;SDS011;10931;52.164;5.518;2024-01-30T00:24:10;21.17;;;12.40;;
21539;SDS011;10931;52.164;5.518;2024-01-30T00:26:36;20.48;;;11.63;;
21539;SDS011;10931;52.164;5.518;2024-01-30T00:29:02;18.70;;;12.60;;
21539;SDS011;10931;52.164;5.518;2024-01-30T00:31:28;17.33;;;11.60;;
21539;SDS011;10931;52.164;5.518;2024-01-30T00:33:54;18.90;;;11.73;;
21539;SDS011;10931;52.164;5.518;2024-01-30T00:36:22;16.92;;;11.23;;
21539;SDS011;10931;52.164;5.518;2024-01-30T00:38:54;17.52;;;12.00;;
21539;SDS011;10931;52.164;5.518;2024-01-30T00:41:22;21.73;;;12.63;;
21539;SDS011;10931;52.164;5.518;2024-01-30T00:43:48;22.70;;;12.88;;
21539;SDS011;10931;52.164;5.518;2024-01-30T00:46:16;21.60;;;12.18;;
21539;SDS011;10931;52.164;5.518;2024-01-30T00:48:42;21.27;;;12.25;;
21539;SDS011;10931;52.164;5.518;2024-01-30T00:51:08;20.58;;;12.10;;
21539;SDS011;10931;52.164;5.518;2024-01-30T00:53:34;23.67;;;12.02;;
21539;SDS011;10931;52.164;5.518;2024-01-30T00:56:00;18.20;;;11.60;;
21539;SDS011;10931;52.164;5.518;2024-01-30T00:58:26;21.73;;;12.50;;
21539;SDS011;10931;52.164;5.518;2024-01-30T01:00:51;19.75;;;12.10;;
21539;SDS011;10931;52.164;5.518;2024-01-30T01:03:17;18.85;;;12.07;;
21539;SDS011;10931;52.164;5.518;2024-01-30T01:05:48;22.88;;;11.63;;
21539;SDS011;10931;52.164;5.518;2024-01-30T01:08:14;17.45;;;11.77;;
21539;SDS011;10931;52.164;5.518;2024-01-30T01:10:40;18.75;;;12.18;;
21539;SDS011;10931;52.164;5.518;2024-01-30T01:13:06;19.70;;;11.90;;
21539;SDS011;10931;52.164;5.518;2024-01-30T01:15:32;19.65;;;12.05;;
21539;SDS011;10931;52.164;5.518;2024-01-30T01:18:01;19.08;;;11.93;;
21539;SDS011;10931;52.164;5.518;2024-01-30T01:20:27;20.48;;;12.40;;
21539;SDS011;10931;52.164;5.518;2024-01-30T01:22:53;21.30;;;12.02;;
21539;SDS011;10931;52.164;5.518;2024-01-30T01:25:19;20.48;;;11.50;;
21539;SDS011;10931;52.164;5.518;2024-01-30T01:27:45;19.08;;;11.35;;
21539;SDS011;10931;52.164;5.518;2024-01-30T01:30:19;21.00;;;11.82;;
21539;SDS011;10931;52.164;5.518;2024-01-30T01:32:49;20.08;;;12.10;;
21539;SDS011;10931;52.164;5.518;2024-01-30T01:35:20;17.70;;;12.13;;
21539;SDS011;10931;52.164;5.518;2024-01-30T01:37:52;18.08;;;11.68;;
21539;SDS011;10931;52.164;5.518;2024-01-30T01:40:23;20.42;;;12.00;;
21539;SDS011;10931;52.164;5.518;2024-01-30T01:42:50;17.00;;;11.63;;
21539;SDS011;10931;52.164;5.518;2024-01-30T01:45:20;20.60;;;11.98;;
21539;SDS011;10931;52.164;5.518;2024-01-30T01:47:47;21.50;;;12.68;;
21539;SDS011;10931;52.164;5.518;2024-01-30T01:50:16;17.33;;;11.68;;
21539;SDS011;10931;52.164;5.518;2024-01-30T01:52:44;17.45;;;11.38;;
21539;SDS011;10931;52.164;5.518;2024-01-30T01:55:12;20.92;;;11.50;;
21539;SDS011;10931;52.164;5.518;2024-01-30T01:57:39;18.63;;;11.52;;
21539;SDS011;10931;52.164;5.518;2024-01-30T02:00:06;16.98;;;12.05;;
21539;SDS011;10931;52.164;5.518;2024-01-30T02:02:35;16.52;;;11.15;;
21539;SDS011;10931;52.164;5.518;2024-01-30T02:05:02;19.02;;;11.63;;
21539;SDS011;10931;52.164;5.518;2024-01-30T02:07:29;20.27;;;11.70;;
21539;SDS011;10931;52.164;5.518;2024-01-30T02:09:55;22.58;;;12.38;;
21539;SDS011;10931;52.164;5.518;2024-01-30T02:12:21;18.65;;;10.70;;
21539;SDS011;10931;52.164;5.518;2024-01-30T02:14:47;18.70;;;11.43;;
21539;SDS011;10931;52.164;5.518;2024-01-30T02:17:13;17.55;;;10.88;;
21539;SDS011;10931;52.164;5.518;2024-01-30T02:19:39;19.45;;;11.60;;
21539;SDS011;10931;52.164;5.518;2024-01-30T02:22:05;17.65;;;11.02;;
21539;SDS011;10931;52.164;5.518;2024-01-30T02:24:31;16.17;;;11.02;;
21539;SDS011;10931;52.164;5.518;2024-01-30T02:26:57;17.08;;;10.45;;
21539;SDS011;10931;52.164;5.518;2024-01-30T02:29:23;19.23;;;11.65;;
21539;SDS011;10931;52.164;5.518;2024-01-30T02:31:48;17.35;;;10.73;;
21539;SDS011;10931;52.164;5.518;2024-01-30T02:34:15;20.77;;;12.30;;
21539;SDS011;10931;52.164;5.518;2024-01-30T02:36:44;17.40;;;11.40;;
21539;SDS011;10931;52.164;5.518;2024-01-30T02:39:12;14.77;;;10.82;;
21539;SDS011;10931;52.164;5.518;2024-01-30T02:41:41;21.88;;;11.50;;
21539;SDS011;10931;52.164;5.518;2024-01-30T02:44:12;16.83;;;10.32;;
21539;SDS011;10931;52.164;5.518;2024-01-30T02:46:38;16.83;;;11.05;;
21539;SDS011;10931;52.164;5.518;2024-01-30T02:49:04;15.50;;;9.90;;
21539;SDS011;10931;52.164;5.518;2024-01-30T02:51:30;16.25;;;10.48;;
21539;SDS011;10931;52.164;5.518;2024-01-30T02:53:56;19.95;;;10.85;;
21539;SDS011;10931;52.164;5.518;2024-01-30T02:56:22;16.25;;;9.65;;
21539;SDS011;10931;52.164;5.518;2024-01-30T02:58:47;17.48;;;10.70;;
21539;SDS011;10931;52.164;5.518;2024-01-30T03:01:13;15.57;;;10.25;;
21539;SDS011;10931;52.164;5.518;2024-01-30T03:03:40;17.70;;;10.32;;
21539;SDS011;10931;52.164;5.518;2024-01-30T03:06:05;21.52;;;11.50;;
21539;SDS011;10931;52.164;5.518;2024-01-30T03:08:32;15.25;;;10.68;;
21539;SDS011;10931;52.164;5.518;2024-01-30T03:10:59;16.63;;;11.45;;
21539;SDS011;10931;52.164;5.518;2024-01-30T03:13:25;21.17;;;12.70;;
21539;SDS011;10931;52.164;5.518;2024-01-30T03:15:51;21.42;;;12.10;;
21539;SDS011;10931;52.164;5.518;2024-01-30T03:18:17;19.17;;;12.50;;
21539;SDS011;10931;52.164;5.518;2024-01-30T03:20:43;21.10;;;11.57;;
21539;SDS011;10931;52.164;5.518;2024-01-30T03:23:09;21.70;;;12.18;;
21539;SDS011;10931;52.164;5.518;2024-01-30T03:25:35;20.02;;;12.23;;
21539;SDS011;10931;52.164;5.518;2024-01-30T03:28:01;22.02;;;11.48;;
21539;SDS011;10931;52.164;5.518;2024-01-30T03:30:26;19.45;;;11.20;;
21539;SDS011;10931;52.164;5.518;2024-01-30T03:32:52;20.67;;;11.80;;
21539;SDS011;10931;52.164;5.518;2024-01-30T03:35:18;16.77;;;11.15;;
21539;SDS011;10931;52.164;5.518;2024-01-30T03:37:46;23.08;;;10.88;;
21539;SDS011;10931;52.164;5.518;2024-01-30T03:40:12;14.95;;;10.15;;
21539;SDS011;10931;52.164;5.518;2024-01-30T03:42:38;17.52;;;10.73;;
21539;SDS011;10931;52.164;5.518;2024-01-30T03:45:04;15.23;;;9.93;;
21539;SDS011;10931;52.164;5.518;2024-01-30T03:47:30;17.45;;;10.50;;
21539;SDS011;10931;52.164;5.518;2024-01-30T03:49:56;16.00;;;9.50;;
21539;SDS011;10931;52.164;5.518;2024-01-30T03:52:22;14.93;;;10.27;;
21539;SDS011;10931;52.164;5.518;2024-01-30T03:54:47;14.70;;;10.20;;
21539;SDS011;10931;52.164;5.518;2024-01-30T03:57:13;17.13;;;10.73;;
21539;SDS011;10931;52.164;5.518;2024-01-30T03:59:41;15.68;;;10.85;;
21539;SDS011;10931;52.164;5.518;2024-01-30T04:02:07;20.38;;;11.55;;
21539;SDS011;10931;52.164;5.518;2024-01-30T04:04:33;20.48;;;11.23;;
21539;SDS011;10931;52.164;5.518;2024-01-30T04:07:02;21.25;;;12.60;;
21539;SDS011;10931;52.164;5.518;2024-01-30T04:09:28;17.77;;;11.10;;
21539;SDS011;10931;52.164;5.518;2024-01-30T04:11:53;20.17;;;11.13;;
21539;SDS011;10931;52.164;5.518;2024-01-30T04:14:19;21.38;;;11.27;;
21539;SDS011;10931;52.164;5.518;2024-01-30T04:16:45;23.13;;;11.00;;
21539;SDS011;10931;52.164;5.518;2024-01-30T04:19:10;16.83;;;10.98;;
21539;SDS011;10931;52.164;5.518;2024-01-30T04:21:36;20.02;;;10.52;;
21539;SDS011;10931;52.164;5.518;2024-01-30T04:24:02;15.88;;;10.48;;
21539;SDS011;10931;52.164;5.518;2024-01-30T04:26:28;17.85;;;10.32;;
21539;SDS011;10931;52.164;5.518;2024-01-30T04:28:54;17.90;;;11.60;;
21539;SDS011;10931;52.164;5.518;2024-01-30T04:31:19;19.50;;;10.38;;
21539;SDS011;10931;52.164;5.518;2024-01-30T04:33:45;22.45;;;10.98;;
21539;SDS011;10931;52.164;5.518;2024-01-30T04:36:11;17.48;;;10.63;;
21539;SDS011;10931;52.164;5.518;2024-01-30T04:38:37;16.73;;;11.10;;
21539;SDS011;10931;52.164;5.518;2024-01-30T04:41:04;16.42;;;10.60;;
21539;SDS011;10931;52.164;5.518;2024-01-30T04:43:30;16.00;;;10.70;;
21539;SDS011;10931;52.164;5.518;2024-01-30T04:45:56;15.25;;;10.70;;
21539;SDS011;10931;52.164;5.518;2024-01-30T04:48:21;15.05;;;10.07;;
21539;SDS011;10931;52.164;5.518;2024-01-30T04:50:47;17.25;;;11.25;;
21539;SDS011;10931;52.164;5.518;2024-01-30T04:53:12;18.70;;;10.63;;
21539;SDS011;10931;52.164;5.518;2024-01-30T04:55:38;16.52;;;11.10;;
21539;SDS011;10931;52.164;5.518;2024-01-30T04:58:06;18.70;;;11.38;;
21539;SDS011;10931;52.164;5.518;2024-01-30T05:00:32;16.90;;;10.00;;
21539;SDS011;10931;52.164;5.518;2024-01-30T05:02:58;18.15;;;10.15;;
21539;SDS011;10931;52.164;5.518;2024-01-30T05:05:24;16.77;;;10.50;;
21539;SDS011;10931;52.164;5.518;2024-01-30T05:07:49;22.10;;;11.30;;
21539;SDS011;10931;52.164;5.518;2024-01-30T05:10:15;15.73;;;10.73;;
21539;SDS011;10931;52.164;5.518;2024-01-30T05:12:44;20.50;;;11.13;;
21539;SDS011;10931;52.164;5.518;2024-01-30T05:15:09;17.08;;;10.90;;
21539;SDS011;10931;52.164;5.518;2024-01-30T05:17:35;16.25;;;10.45;;
21539;SDS011;10931;52.164;5.518;2024-01-30T05:20:03;17.67;;;10.25;;
21539;SDS011;10931;52.164;5.518;2024-01-30T05:22:29;18.45;;;10.55;;
21539;SDS011;10931;52.164;5.518;2024-01-30T05:24:55;14.73;;;10.38;;
21539;SDS011;10931;52.164;5.518;2024-01-30T05:27:21;18.30;;;10.43;;
21539;SDS011;10931;52.164;5.518;2024-01-30T05:29:47;21.13;;;10.50;;
21539;SDS011;10931;52.164;5.518;2024-01-30T05:32:13;16.65;;;11.10;;
21539;SDS011;10931;52.164;5.518;2024-01-30T05:34:38;15.55;;;10.30;;
21539;SDS011;10931;52.164;5.518;2024-01-30T05:37:04;19.08;;;10.75;;
21539;SDS011;10931;52.164;5.518;2024-01-30T05:39:30;18.35;;;9.38;;
21539;SDS011;10931;52.164;5.518;2024-01-30T05:41:58;16.98;;;10.30;;
21539;SDS011;10931;52.164;5.518;2024-01-30T05:44:23;15.75;;;10.50;;
21539;SDS011;10931;52.164;5.518;2024-01-30T05:46:52;22.80;;;12.30;;
21539;SDS011;10931;52.164;5.518;2024-01-30T05:49:18;14.27;;;9.77;;
21539;SDS011;10931;52.164;5.518;2024-01-30T05:51:44;21.52;;;10.95;;
21539;SDS011;10931;52.164;5.518;2024-01-30T05:54:12;16.90;;;10.70;;
21539;SDS011;10931;52.164;5.518;2024-01-30T05:56:38;16.75;;;10.75;;
21539;SDS011;10931;52.164;5.518;2024-01-30T05:59:03;16.83;;;10.30;;
21539;SDS011;10931;52.164;5.518;2024-01-30T06:01:32;20.80;;;11.23;;
21539;SDS011;10931;52.164;5.518;2024-01-30T06:03:58;17.50;;;11.30;;
21539;SDS011;10931;52.164;5.518;2024-01-30T06:06:23;15.77;;;10.43;;
21539;SDS011;10931;52.164;5.518;2024-01-30T06:08:57;15.55;;;9.57;;
21539;SDS011;10931;52.164;5.518;2024-01-30T06:11:22;20.33;;;11.13;;
21539;SDS011;10931;52.164;5.518;2024-01-30T06:13:48;16.70;;;10.38;;
21539;SDS011;10931;52.164;5.518;2024-01-30T06:16:14;16.38;;;9.50;;
21539;SDS011;10931;52.164;5.518;2024-01-30T06:18:39;20.50;;;10.63;;
21539;SDS011;10931;52.164;5.518;2024-01-30T06:21:08;23.77;;;10.30;;
21539;SDS011;10931;52.164;5.518;2024-01-30T06:23:34;18.42;;;10.70;;
21539;SDS011;10931;52.164;5.518;2024-01-30T06:26:00;21.98;;;10.40;;
21539;SDS011;10931;52.164;5.518;2024-01-30T06:28:25;18.00;;;10.65;;
21539;SDS011;10931;52.164;5.518;2024-01-30T06:30:51;18.58;;;10.60;;
21539;SDS011;10931;52.164;5.518;2024-01-30T06:33:17;19.23;;;10.05;;
21539;SDS011;10931;52.164;5.518;2024-01-30T06:35:45;17.98;;;10.75;;
21539;SDS011;10931;52.164;5.518;2024-01-30T06:38:11;18.83;;;10.23;;
21539;SDS011;10931;52.164;5.518;2024-01-30T06:40:40;16.58;;;9.73;;
21539;SDS011;10931;52.164;5.518;2024-01-30T06:43:16;18.67;;;10.57;;
21539;SDS011;10931;52.164;5.518;2024-01-30T06:45:51;17.40;;;10.20;;
21539;SDS011;10931;52.164;5.518;2024-01-30T06:48:17;19.48;;;10.10;;
21539;SDS011;10931;52.164;5.518;2024-01-30T06:50:45;19.95;;;10.85;;
21539;SDS011;10931;52.164;5.518;2024-01-30T06:53:11;19.02;;;10.23;;
21539;SDS011;10931;52.164;5.518;2024-01-30T06:55:40;18.13;;;10.25;;
21539;SDS011;10931;52.164;5.518;2024-01-30T06:58:11;18.95;;;10.48;;
21539;SDS011;10931;52.164;5.518;2024-01-30T07:00:37;17.23;;;10.27;;
21539;SDS011;10931;52.164;5.518;2024-01-30T07:03:03;21.40;;;10.35;;
21539;SDS011;10931;52.164;5.518;2024-01-30T07:05:29;17.08;;;10.07;;
21539;SDS011;10931;52.164;5.518;2024-01-30T07:08:06;16.10;;;9.60;;
21539;SDS011;10931;52.164;5.518;2024-01-30T07:10:35;16.73;;;9.68;;
21539;SDS011;10931;52.164;5.518;2024-01-30T07:13:03;18.60;;;10.10;;
21539;SDS011;10931;52.164;5.518;2024-01-30T07:15:30;16.55;;;10.20;;
21539;SDS011;10931;52.164;5.518;2024-01-30T07:17:59;16.45;;;9.82;;
21539;SDS011;10931;52.164;5.518;2024-01-30T07:20:27;18.10;;;9.65;;
21539;SDS011;10931;52.164;5.518;2024-01-30T07:22:52;16.85;;;10.75;;
21539;SDS011;10931;52.164;5.518;2024-01-30T07:25:21;17.02;;;10.10;;
21539;SDS011;10931;52.164;5.518;2024-01-30T07:27:46;18.83;;;10.15;;
21539;SDS011;10931;52.164;5.518;2024-01-30T07:30:12;16.73;;;9.95;;
21539;SDS011;10931;52.164;5.518;2024-01-30T07:32:38;18.92;;;9.13;;
21539;SDS011;10931;52.164;5.518;2024-01-30T07:35:06;14.65;;;9.73;;
21539;SDS011;10931;52.164;5.518;2024-01-30T07:37:32;15.88;;;9.68;;
21539;SDS011;10931;52.164;5.518;2024-01-30T07:39:58;17.17;;;9.30;;
21539;SDS011;10931;52.164;5.518;2024-01-30T07:42:27;15.23;;;9.45;;
21539;SDS011;10931;52.164;5.518;2024-01-30T07:44:53;17.98;;;10.00;;
21539;SDS011;10931;52.164;5.518;2024-01-30T07:47:18;26.58;;;10.30;;
21539;SDS011;10931;52.164;5.518;2024-01-30T07:49:46;18.25;;;10.77;;
21539;SDS011;10931;52.164;5.518;2024-01-30T07:52:12;16.52;;;9.90;;
21539;SDS011;10931;52.164;5.518;2024-01-30T07:54:47;18.60;;;10.57;;
21539;SDS011;10931;52.164;5.518;2024-01-30T07:57:16;20.92;;;10.05;;
21539;SDS011;10931;52.164;5.518;2024-01-30T07:59:43;14.85;;;9.57;;
21539;SDS011;10931;52.164;5.518;2024-01-30T08:02:12;18.00;;;9.85;;
21539;SDS011;10931;52.164;5.518;2024-01-30T08:04:38;20.23;;;10.55;;
21539;SDS011;10931;52.164;5.518;2024-01-30T08:07:04;16.55;;;9.55;;
21539;SDS011;10931;52.164;5.518;2024-01-30T08:09:30;16.70;;;10.52;;
21539;SDS011;10931;52.164;5.518;2024-01-30T08:12:03;24.15;;;10.40;;
21539;SDS011;10931;52.164;5.518;2024-01-30T08:14:32;17.52;;;9.50;;
21539;SDS011;10931;52.164;5.518;2024-01-30T08:16:57;18.60;;;9.98;;
21539;SDS011;10931;52.164;5.518;2024-01-30T08:19:23;20.15;;;10.40;;
21539;SDS011;10931;52.164;5.518;2024-01-30T08:21:49;13.38;;;9.27;;
21539;SDS011;10931;52.164;5.518;2024-01-30T08:24:25;17.45;;;9.35;;
21539;SDS011;10931;52.164;5.518;2024-01-30T08:26:53;17.58;;;10.82;;
21539;SDS011;10931;52.164;5.518;2024-01-30T08:29:19;17.17;;;10.45;;
21539;SDS011;10931;52.164;5.518;2024-01-30T08:31:45;23.80;;;10.30;;
21539;SDS011;10931;52.164;5.518;2024-01-30T08:34:11;18.63;;;9.95;;
21539;SDS011;10931;52.164;5.518;2024-01-30T08:36:37;21.75;;;10.73;;
21539;SDS011;10931;52.164;5.518;2024-01-30T08:39:02;20.27;;;9.95;;
21539;SDS011;10931;52.164;5.518;2024-01-30T08:41:30;13.10;;;9.52;;
21539;SDS011;10931;52.164;5.518;2024-01-30T08:43:56;18.08;;;10.48;;
21539;SDS011;10931;52.164;5.518;2024-01-30T08:46:21;22.88;;;10.70;;
21539;SDS011;10931;52.164;5.518;2024-01-30T08:48:47;14.77;;;9.80;;
21539;SDS011;10931;52.164;5.518;2024-01-30T08:51:15;20.52;;;10.15;;
21539;SDS011;10931;52.164;5.518;2024-01-30T08:53:51;21.08;;;10.18;;
21539;SDS011;10931;52.164;5.518;2024-01-30T08:56:18;24.60;;;10.38;;
21539;SDS011;10931;52.164;5.518;2024-01-30T08:58:44;21.17;;;10.88;;
21539;SDS011;10931;52.164;5.518;2024-01-30T09:01:10;19.02;;;10.63;;
21539;SDS011;10931;52.164;5.518;2024-01-30T09:03:41;19.20;;;11.15;;
21539;SDS011;10931;52.164;5.518;2024-01-30T09:06:09;17.58;;;10.73;;
21539;SDS011;10931;52.164;5.518;2024-01-30T09:08:38;18.17;;;10.60;;
21539;SDS011;10931;52.164;5.518;2024-01-30T09:11:11;17.92;;;11.65;;
21539;SDS011;10931;52.164;5.518;2024-01-30T09:13:37;20.52;;;11.05;;
21539;SDS011;10931;52.164;5.518;2024-01-30T09:16:05;24.13;;;10.85;;
21539;SDS011;10931;52.164;5.518;2024-01-30T09:18:49;20.02;;;10.50;;
21539;SDS011;10931;52.164;5.518;2024-01-30T09:21:18;23.98;;;10.73;;
21539;SDS011;10931;52.164;5.518;2024-01-30T09:23:44;22.30;;;10.98;;
21539;SDS011;10931;52.164;5.518;2024-01-30T09:26:09;22.92;;;11.35;;
21539;SDS011;10931;52.164;5.518;2024-01-30T09:28:41;23.42;;;11.35;;
21539;SDS011;10931;52.164;5.518;2024-01-30T09:31:11;24.00;;;10.80;;
21539;SDS011;10931;52.164;5.518;2024-01-30T09:33:50;26.70;;;11.43;;
21539;SDS011;10931;52.164;5.518;2024-01-30T09:36:25;23.33;;;11.57;;
21539;SDS011;10931;52.164;5.518;2024-01-30T09:38:58;21.17;;;10.80;;
21539;SDS011;10931;52.164;5.518;2024-01-30T09:41:31;17.83;;;10.55;;
21539;SDS011;10931;52.164;5.518;2024-01-30T09:46:49;17.92;;;10.85;;
21539;SDS011;10931;52.164;5.518;2024-01-30T09:49:28;23.05;;;12.23;;
21539;SDS011;10931;52.164;5.518;2024-01-30T09:52:00;26.85;;;11.88;;
21539;SDS011;10931;52.164;5.518;2024-01-30T09:54:41;19.00;;;10.15;;
21539;SDS011;10931;52.164;5.518;2024-01-30T09:57:11;19.48;;;10.52;;
21539;SDS011;10931;52.164;5.518;2024-01-30T09:59:55;17.40;;;11.18;;
21539;SDS011;10931;52.164;5.518;2024-01-30T10:02:41;22.10;;;10.85;;
21539;SDS011;10931;52.164;5.518;2024-01-30T10:05:10;22.10;;;11.18;;
21539;SDS011;10931;52.164;5.518;2024-01-30T10:07:49;21.23;;;10.55;;
21539;SDS011;10931;52.164;5.518;2024-01-30T10:10:23;17.13;;;10.35;;
21539;SDS011;10931;52.164;5.518;2024-01-30T10:12:49;16.08;;;10.95;;
21539;SDS011;10931;52.164;5.518;2024-01-30T10:15:15;17.58;;;10.85;;
21539;SDS011;10931;52.164;5.518;2024-01-30T10:17:50;19.20;;;10.43;;
21539;SDS011;10931;52.164;5.518;2024-01-30T10:20:34;17.17;;;10.10;;
21539;SDS011;10931;52.164;5.518;2024-01-30T10:23:03;24.58;;;11.38;;
21539;SDS011;10931;52.164;5.518;2024-01-30T10:25:31;22.55;;;11.02;;
21539;SDS011;10931;52.164;5.518;2024-01-30T10:27:58;21.02;;;10.90;;
21539;SDS011;10931;52.164;5.518;2024-01-30T10:30:25;20.48;;;10.25;;
21539;SDS011;10931;52.164;5.518;2024-01-30T10:32:53;20.05;;;10.75;;
21539;SDS011;10931;52.164;5.518;2024-01-30T10:35:21;26.58;;;10.65;;
21539;SDS011;10931;52.164;5.518;2024-01-30T10:37:47;24.52;;;10.35;;
21539;SDS011;10931;52.164;5.518;2024-01-30T10:40:14;17.55;;;10.05;;
21539;SDS011;10931;52.164;5.518;2024-01-30T10:42:44;19.15;;;10.45;;
21539;SDS011;10931;52.164;5.518;2024-01-30T10:45:17;15.45;;;10.13;;
21539;SDS011;10931;52.164;5.518;2024-01-30T10:47:59;15.38;;;9.93;;
21539;SDS011;10931;52.164;5.518;2024-01-30T10:50:32;17.70;;;9.48;;
21539;SDS011;10931;52.164;5.518;2024-01-30T10:53:03;18.00;;;9.38;;
21539;SDS011;10931;52.164;5.518;2024-01-30T10:55:33;19.25;;;10.13;;
21539;SDS011;10931;52.164;5.518;2024-01-30T10:58:00;19.30;;;10.02;;
21539;SDS011;10931;52.164;5.518;2024-01-30T11:00:29;18.50;;;9.85;;
21539;SDS011;10931;52.164;5.518;2024-01-30T11:02:58;23.55;;;10.18;;
21539;SDS011;10931;52.164;5.518;2024-01-30T11:05:30;23.65;;;10.70;;
21539;SDS011;10931;52.164;5.518;2024-01-30T11:08:14;17.55;;;9.30;;
21539;SDS011;10931;52.164;5.518;2024-01-30T11:11:07;18.08;;;9.73;;
21539;SDS011;10931;52.164;5.518;2024-01-30T11:13:45;16.55;;;9.55;;
21539;SDS011;10931;52.164;5.518;2024-01-30T11:16:19;16.20;;;8.43;;
21539;SDS011;10931;52.164;5.518;2024-01-30T11:18:49;13.60;;;8.30;;
21539;SDS011;10931;52.164;5.518;2024-01-30T11:21:33;14.32;;;7.75;;
21539;SDS011;10931;52.164;5.518;2024-01-30T11:24:27;14.30;;;8.10;;
21539;SDS011;10931;52.164;5.518;2024-01-30T11:27:01;13.10;;;8.02;;
21539;SDS011;10931;52.164;5.518;2024-01-30T11:29:33;13.10;;;7.72;;
21539;SDS011;10931;52.164;5.518;2024-01-30T11:32:10;16.48;;;7.78;;
21539;SDS011;10931;52.164;5.518;2024-01-30T11:34:43;15.60;;;8.55;;
21539;SDS011;10931;52.164;5.518;2024-01-30T11:37:13;13.50;;;7.70;;
21539;SDS011;10931;52.164;5.518;2024-01-30T11:39:47;16.02;;;8.48;;
21539;SDS011;10931;52.164;5.518;2024-01-30T11:42:19;15.27;;;7.40;;
21539;SDS011;10931;52.164;5.518;2024-01-30T11:44:50;11.00;;;6.82;;
21539;SDS011;10931;52.164;5.518;2024-01-30T11:47:20;10.18;;;6.28;;
21539;SDS011;10931;52.164;5.518;2024-01-30T11:49:55;10.77;;;4.20;;
21539;SDS011;10931;52.164;5.518;2024-01-30T11:52:31;6.07;;;3.50;;
21539;SDS011;10931;52.164;5.518;2024-01-30T11:55:07;9.10;;;3.38;;
21539;SDS011;10931;52.164;5.518;2024-01-30T11:57:37;10.48;;;3.80;;
21539;SDS011;10931;52.164;5.518;2024-01-30T12:00:03;8.90;;;3.10;;
21539;SDS011;10931;52.164;5.518;2024-01-30T12:02:37;6.95;;;3.28;;
21539;SDS011;10931;52.164;5.518;2024-01-30T12:05:31;7.60;;;2.75;;
21539;SDS011;10931;52.164;5.518;2024-01-30T12:08:05;10.18;;;2.15;;
21539;SDS011;10931;52.164;5.518;2024-01-30T12:10:34;6.10;;;2.05;;
21539;SDS011;10931;52.164;5.518;2024-01-30T12:13:27;3.92;;;1.38;;
21539;SDS011;10931;52.164;5.518;2024-01-30T12:15:54;10.45;;;2.05;;
21539;SDS011;10931;52.164;5.518;2024-01-30T12:18:20;8.27;;;2.10;;
21539;SDS011;10931;52.164;5.518;2024-01-30T12:21:01;7.93;;;1.80;;
21539;SDS011;10931;52.164;5.518;2024-01-30T12:23:27;8.70;;;1.98;;
21539;SDS011;10931;52.164;5.518;2024-01-30T12:26:05;6.15;;;2.00;;
21539;SDS011;10931;52.164;5.518;2024-01-30T12:28:34;2.90;;;1.63;;
21539;SDS011;10931;52.164;5.518;2024-01-30T12:31:03;9.65;;;2.08;;
21539;SDS011;10931;52.164;5.518;2024-01-30T12:33:35;5.95;;;2.08;;
21539;SDS011;10931;52.164;5.518;2024-01-30T12:36:12;3.90;;;2.22;;
21539;SDS011;10931;52.164;5.518;2024-01-30T12:38:48;5.80;;;2.55;;
21539;SDS011;10931;52.164;5.518;2024-01-30T12:41:45;7.88;;;3.03;;
21539;SDS011;10931;52.164;5.518;2024-01-30T12:44:21;5.40;;;3.47;;
21539;SDS011;10931;52.164;5.518;2024-01-30T12:46:54;8.80;;;3.72;;
21539;SDS011;10931;52.164;5.518;2024-01-30T12:49:26;16.08;;;3.55;;
21539;SDS011;10931;52.164;5.518;2024-01-30T12:51:54;10.98;;;3.03;;
21539;SDS011;10931;52.164;5.518;2024-01-30T12:54:23;10.40;;;3.10;;
21539;SDS011;10931;52.164;5.518;2024-01-30T12:56:52;6.63;;;2.90;;
21539;SDS011;10931;52.164;5.518;2024-01-30T12:59:30;7.47;;;2.78;;
21539;SDS011;10931;52.164;5.518;2024-01-30T13:02:01;12.98;;;3.05;;
21539;SDS011;10931;52.164;5.518;2024-01-30T13:04:49;5.20;;;2.67;;
21539;SDS011;10931;52.164;5.518;2024-01-30T13:07:48;7.05;;;3.17;;
21539;SDS011;10931;52.164;5.518;2024-01-30T13:13:25;6.05;;;2.78;;
21539;SDS011;10931;52.164;5.518;2024-01-30T13:15:51;5.88;;;2.47;;
21539;SDS011;10931;52.164;5.518;2024-01-30T13:18:24;9.18;;;3.08;;
21539;SDS011;10931;52.164;5.518;2024-01-30T13:20:57;5.93;;;2.55;;
21539;SDS011;10931;52.164;5.518;2024-01-30T13:23:31;8.25;;;2.78;;
21539;SDS011;10931;52.164;5.518;2024-01-30T13:26:02;5.30;;;2.20;;
21539;SDS011;10931;52.164;5.518;2024-01-30T13:28:40;7.13;;;2.15;;
21539;SDS011;10931;52.164;5.518;2024-01-30T13:31:15;8.35;;;2.00;;
21539;SDS011;10931;52.164;5.518;2024-01-30T13:33:42;11.90;;;2.20;;
21539;SDS011;10931;52.164;5.518;2024-01-30T13:36:24;8.10;;;1.63;;
21539;SDS011;10931;52.164;5.518;2024-01-30T13:39:21;3.80;;;1.50;;
21539;SDS011;10931;52.164;5.518;2024-01-30T13:41:56;4.40;;;1.63;;
21539;SDS011;10931;52.164;5.518;2024-01-30T13:44:21;5.78;;;1.52;;
21539;SDS011;10931;52.164;5.518;2024-01-30T13:47:06;2.72;;;1.52;;
21539;SDS011;10931;52.164;5.518;2024-01-30T13:49:31;4.25;;;1.60;;
21539;SDS011;10931;52.164;5.518;2024-01-30T13:52:00;5.15;;;1.48;;
21539;SDS011;10931;52.164;5.518;2024-01-30T13:54:37;5.28;;;1.63;;
21539;SDS011;10931;52.164;5.518;2024-01-30T13:57:13;4.85;;;1.95;;
21539;SDS011;10931;52.164;5.518;2024-01-30T13:59:53;4.10;;;1.20;;
21539;SDS011;10931;52.164;5.518;2024-01-30T14:02:39;4.47;;;1.50;;
21539;SDS011;10931;52.164;5.518;2024-01-30T14:05:10;3.47;;;1.45;;
21539;SDS011;10931;52.164;5.518;2024-01-30T14:07:42;2.20;;;1.50;;
21539;SDS011;10931;52.164;5.518;2024-01-30T14:10:19;6.07;;;2.10;;
21539;SDS011;10931;52.164;5.518;2024-01-30T14:12:47;2.95;;;1.80;;
21539;SDS011;10931;52.164;5.518;2024-01-30T14:15:15;5.13;;;2.15;;
21539;SDS011;10931;52.164;5.518;2024-01-30T14:17:46;8.40;;;2.03;;
21539;SDS011;10931;52.164;5.518;2024-01-30T14:20:15;7.43;;;2.03;;
21539;SDS011;10931;52.164;5.518;2024-01-30T14:22:44;6.78;;;2.53;;
21539;SDS011;10931;52.164;5.518;2024-01-30T14:25:12;3.83;;;2.28;;
21539;SDS011;10931;52.164;5.518;2024-01-30T14:27:40;4.20;;;1.92;;
21539;SDS011;10931;52.164;5.518;2024-01-30T14:30:06;7.72;;;1.75;;
21539;SDS011;10931;52.164;5.518;2024-01-30T14:32:38;4.80;;;1.92;;
21539;SDS011;10931;52.164;5.518;2024-01-30T14:35:07;5.22;;;1.63;;
21539;SDS011;10931;52.164;5.518;2024-01-30T14:37:44;5.93;;;1.70;;
21539;SDS011;10931;52.164;5.518;2024-01-30T14:40:10;8.38;;;1.48;;
21539;SDS011;10931;52.164;5.518;2024-01-30T14:42:38;6.05;;;1.63;;
21539;SDS011;10931;52.164;5.518;2024-01-30T14:45:05;4.05;;;1.30;;
21539;SDS011;10931;52.164;5.518;2024-01-30T14:47:37;5.93;;;1.20;;